sensor_id;sensor_type;location;lat;lon;timestamp;pressure;altitude;pressure_sealevel;temperature;humidity
27232;BME280;61835;50.196;6.454;2022-07-23T00:02:00;96553.22;;;24.00;100.00
27232;BME280;61835;50.196;6.454;2022-07-23T00:04:25;96561.78;;;24.03;100.00
27232;BME280;61835;50.196;6.454;2022-07-23T00:06:51;96555.13;;;24.12;100.00
27232;BME280;61835;50.196;6.454;2022-07-23T00:09:16;96562.69;;;24.23;100.00
27232;BME280;61835;50.196;6.454;2022-07-23T00:11:42;96551.81;;;24.10;100.00
27232;BME280;61835;50.196;6.454;2022-07-23T00:14:07;96550.72;;;24.05;100.00
27232;BME280;61835;50.196;6.454;2022-07-23T00:16:32;96559.09;;;24.03;100.00
27232;BME280;61835;50.196;6.454;2022-07-23T00:18:58;96552.19;;;24.07;100.00
27232;BME280;61835;50.196;6.454;2022-07-23T00:21:26;96548.19;;;23.90;100.00
27232;BME280;61835;50.196;6.454;2022-07-23T00:23:52;96544.00;;;23.81;100.00
27232;BME280;61835;50.196;6.454;2022-07-23T00:26:17;96543.13;;;23.74;100.00
27232;BME280;61835;50.196;6.454;2022-07-23T00:28:42;96546.50;;;23.76;100.00
27232;BME280;61835;50.196;6.454;2022-07-23T00:31:08;96543.34;;;23.72;100.00
27232;BME280;61835;50.196;6.454;2022-07-23T00:33:34;96542.91;;;23.69;100.00
27232;BME280;61835;50.196;6.454;2022-07-23T00:36:00;96544.81;;;23.75;100.00
27232;BME280;61835;50.196;6.454;2022-07-23T00:38:25;96547.75;;;23.80;100.00
27232;BME280;61835;50.196;6.454;2022-07-23T00:40:51;96553.97;;;23.74;100.00
27232;BME280;61835;50.196;6.454;2022-07-23T00:43:16;96554.63;;;23.76;100.00
27232;BME280;61835;50.196;6.454;2022-07-23T00:45:41;96546.41;;;23.56;100.00
27232;BME280;61835;50.196;6.454;2022-07-23T00:48:07;96544.31;;;23.52;100.00
27232;BME280;61835;50.196;6.454;2022-07-23T00:50:32;96544.06;;;23.40;100.00
27232;BME280;61835;50.196;6.454;2022-07-23T00:52:58;96538.94;;;23.24;100.00
27232;BME280;61835;50.196;6.454;2022-07-23T00:55:23;96543.69;;;23.15;100.00
27232;BME280;61835;50.196;6.454;2022-07-23T00:57:49;96543.75;;;23.22;100.00
27232;BME280;61835;50.196;6.454;2022-07-23T01:00:15;96548.97;;;23.23;100.00
27232;BME280;61835;50.196;6.454;2022-07-23T01:02:42;96549.56;;;23.19;100.00
27232;BME280;61835;50.196;6.454;2022-07-23T01:05:07;96540.59;;;23.18;100.00
27232;BME280;61835;50.196;6.454;2022-07-23T01:07:33;96543.56;;;23.23;100.00
27232;BME280;61835;50.196;6.454;2022-07-23T01:09:59;96545.84;;;23.26;100.00
27232;BME280;61835;50.196;6.454;2022-07-23T01:12:25;96544.59;;;23.22;100.00
27232;BME280;61835;50.196;6.454;2022-07-23T01:14:55;96528.94;;;23.18;100.00
27232;BME280;61835;50.196;6.454;2022-07-23T01:17:20;96539.88;;;23.03;100.00
27232;BME280;61835;50.196;6.454;2022-07-23T01:19:46;96539.88;;;22.97;100.00
27232;BME280;61835;50.196;6.454;2022-07-23T01:22:11;96535.22;;;22.84;100.00
27232;BME280;61835;50.196;6.454;2022-07-23T01:24:36;96529.75;;;22.77;100.00
27232;BME280;61835;50.196;6.454;2022-07-23T01:27:04;96522.56;;;22.63;100.00
27232;BME280;61835;50.196;6.454;2022-07-23T01:29:31;96525.66;;;22.60;100.00
27232;BME280;61835;50.196;6.454;2022-07-23T01:32:00;96530.75;;;22.49;100.00
27232;BME280;61835;50.196;6.454;2022-07-23T01:34:25;96526.28;;;22.35;100.00
27232;BME280;61835;50.196;6.454;2022-07-23T01:36:50;96524.38;;;22.29;100.00
27232;BME280;61835;50.196;6.454;2022-07-23T01:39:17;96529.50;;;22.23;100.00
27232;BME280;61835;50.196;6.454;2022-07-23T01:41:42;96526.31;;;22.13;100.00
27232;BME280;61835;50.196;6.454;2022-07-23T01:44:08;96524.94;;;22.03;100.00
27232;BME280;61835;50.196;6.454;2022-07-23T01:46:33;96529.00;;;21.92;100.00
27232;BME280;61835;50.196;6.454;2022-07-23T01:48:59;96520.09;;;21.77;100.00
27232;BME280;61835;50.196;6.454;2022-07-23T01:51:40;96522.00;;;21.62;100.00
27232;BME280;61835;50.196;6.454;2022-07-23T01:54:29;96521.75;;;21.57;100.00
27232;BME280;61835;50.196;6.454;2022-07-23T01:56:55;96519.56;;;21.46;100.00
27232;BME280;61835;50.196;6.454;2022-07-23T01:59:21;96524.97;;;21.46;100.00
27232;BME280;61835;50.196;6.454;2022-07-23T02:01:46;96525.44;;;21.35;100.00
27232;BME280;61835;50.196;6.454;2022-07-23T02:04:12;96527.88;;;21.30;100.00
27232;BME280;61835;50.196;6.454;2022-07-23T02:06:40;96526.84;;;21.31;100.00
27232;BME280;61835;50.196;6.454;2022-07-23T02:09:06;96525.06;;;21.23;100.00
27232;BME280;61835;50.196;6.454;2022-07-23T02:11:32;96532.44;;;21.14;100.00
27232;BME280;61835;50.196;6.454;2022-07-23T02:13:57;96521.72;;;21.06;100.00
27232;BME280;61835;50.196;6.454;2022-07-23T02:16:22;96518.38;;;21.04;100.00
27232;BME280;61835;50.196;6.454;2022-07-23T02:18:48;96520.63;;;21.01;100.00
27232;BME280;61835;50.196;6.454;2022-07-23T02:21:13;96521.16;;;20.96;100.00
27232;BME280;61835;50.196;6.454;2022-07-23T02:23:39;96512.53;;;20.86;100.00
27232;BME280;61835;50.196;6.454;2022-07-23T02:26:04;96506.19;;;20.79;100.00
27232;BME280;61835;50.196;6.454;2022-07-23T02:28:29;96506.69;;;20.68;100.00
27232;BME280;61835;50.196;6.454;2022-07-23T02:30:56;96507.16;;;20.72;100.00
27232;BME280;61835;50.196;6.454;2022-07-23T02:33:21;96503.88;;;20.47;100.00
27232;BME280;61835;50.196;6.454;2022-07-23T02:35:47;96509.59;;;20.29;100.00
27232;BME280;61835;50.196;6.454;2022-07-23T02:38:13;96505.66;;;20.40;100.00
27232;BME280;61835;50.196;6.454;2022-07-23T02:40:38;96517.53;;;20.23;100.00
27232;BME280;61835;50.196;6.454;2022-07-23T02:43:03;96507.91;;;20.28;100.00
27232;BME280;61835;50.196;6.454;2022-07-23T02:45:29;96503.78;;;20.18;100.00
27232;BME280;61835;50.196;6.454;2022-07-23T02:47:54;96508.91;;;20.13;100.00
27232;BME280;61835;50.196;6.454;2022-07-23T02:50:20;96503.31;;;20.14;100.00
27232;BME280;61835;50.196;6.454;2022-07-23T02:52:45;96503.59;;;20.04;100.00
27232;BME280;61835;50.196;6.454;2022-07-23T02:55:11;96516.97;;;20.13;100.00
27232;BME280;61835;50.196;6.454;2022-07-23T02:57:37;96507.13;;;20.20;100.00
27232;BME280;61835;50.196;6.454;2022-07-23T03:00:04;96509.81;;;20.20;100.00
27232;BME280;61835;50.196;6.454;2022-07-23T03:02:30;96507.03;;;20.36;100.00
27232;BME280;61835;50.196;6.454;2022-07-23T03:04:56;96524.56;;;20.32;100.00
27232;BME280;61835;50.196;6.454;2022-07-23T03:07:21;96515.53;;;20.25;100.00
27232;BME280;61835;50.196;6.454;2022-07-23T03:09:47;96518.22;;;20.25;100.00
27232;BME280;61835;50.196;6.454;2022-07-23T03:12:13;96512.53;;;20.20;100.00
27232;BME280;61835;50.196;6.454;2022-07-23T03:14:39;96527.63;;;20.29;100.00
27232;BME280;61835;50.196;6.454;2022-07-23T03:17:05;96518.91;;;20.27;100.00
27232;BME280;61835;50.196;6.454;2022-07-23T03:19:31;96521.53;;;20.12;100.00
27232;BME280;61835;50.196;6.454;2022-07-23T03:21:56;96525.13;;;20.04;100.00
27232;BME280;61835;50.196;6.454;2022-07-23T03:24:22;96525.19;;;19.96;100.00
27232;BME280;61835;50.196;6.454;2022-07-23T03:26:49;96532.56;;;19.80;100.00
27232;BME280;61835;50.196;6.454;2022-07-23T03:29:15;96529.16;;;19.86;100.00
27232;BME280;61835;50.196;6.454;2022-07-23T03:31:41;96523.63;;;19.79;100.00
27232;BME280;61835;50.196;6.454;2022-07-23T03:34:07;96528.50;;;19.84;100.00
27232;BME280;61835;50.196;6.454;2022-07-23T03:36:32;96536.38;;;19.85;100.00
27232;BME280;61835;50.196;6.454;2022-07-23T03:38:59;96539.72;;;19.87;100.00
27232;BME280;61835;50.196;6.454;2022-07-23T03:41:24;96532.34;;;19.81;100.00
27232;BME280;61835;50.196;6.454;2022-07-23T03:43:50;96535.72;;;19.83;100.00
27232;BME280;61835;50.196;6.454;2022-07-23T03:46:15;96536.75;;;19.82;100.00
27232;BME280;61835;50.196;6.454;2022-07-23T03:48:41;96540.56;;;19.65;100.00
27232;BME280;61835;50.196;6.454;2022-07-23T03:51:06;96552.88;;;19.60;100.00
27232;BME280;61835;50.196;6.454;2022-07-23T03:53:32;96541.63;;;19.56;100.00
27232;BME280;61835;50.196;6.454;2022-07-23T03:55:58;96539.66;;;19.50;100.00
27232;BME280;61835;50.196;6.454;2022-07-23T03:58:24;96539.16;;;19.46;100.00
27232;BME280;61835;50.196;6.454;2022-07-23T04:00:50;96546.22;;;19.47;100.00
27232;BME280;61835;50.196;6.454;2022-07-23T04:03:16;96546.03;;;19.49;100.00
27232;BME280;61835;50.196;6.454;2022-07-23T04:05:42;96544.03;;;19.51;100.00
27232;BME280;61835;50.196;6.454;2022-07-23T04:08:11;96551.25;;;19.51;100.00
27232;BME280;61835;50.196;6.454;2022-07-23T04:10:39;96550.75;;;19.47;100.00
27232;BME280;61835;50.196;6.454;2022-07-23T04:13:06;96547.66;;;19.58;100.00
27232;BME280;61835;50.196;6.454;2022-07-23T04:15:32;96560.63;;;19.55;100.00
27232;BME280;61835;50.196;6.454;2022-07-23T04:17:57;96556.59;;;19.59;100.00
27232;BME280;61835;50.196;6.454;2022-07-23T04:20:29;96562.81;;;19.82;100.00
27232;BME280;61835;50.196;6.454;2022-07-23T04:22:58;96551.59;;;20.01;100.00
27232;BME280;61835;50.196;6.454;2022-07-23T04:25:24;96547.25;;;20.15;100.00
27232;BME280;61835;50.196;6.454;2022-07-23T04:27:49;96554.50;;;20.37;100.00
27232;BME280;61835;50.196;6.454;2022-07-23T04:30:15;96556.84;;;20.40;100.00
27232;BME280;61835;50.196;6.454;2022-07-23T04:32:40;96561.50;;;20.46;100.00
27232;BME280;61835;50.196;6.454;2022-07-23T04:35:13;96560.31;;;20.63;100.00
27232;BME280;61835;50.196;6.454;2022-07-23T04:37:38;96553.72;;;20.66;100.00
27232;BME280;61835;50.196;6.454;2022-07-23T04:40:04;96554.84;;;20.86;100.00
27232;BME280;61835;50.196;6.454;2022-07-23T04:42:30;96555.69;;;21.01;100.00
27232;BME280;61835;50.196;6.454;2022-07-23T04:44:55;96560.34;;;21.22;100.00
27232;BME280;61835;50.196;6.454;2022-07-23T04:47:21;96564.13;;;21.42;100.00
27232;BME280;61835;50.196;6.454;2022-07-23T04:49:46;96563.66;;;21.53;100.00
27232;BME280;61835;50.196;6.454;2022-07-23T04:52:12;96568.53;;;21.43;100.00
27232;BME280;61835;50.196;6.454;2022-07-23T04:54:37;96560.09;;;21.52;100.00
27232;BME280;61835;50.196;6.454;2022-07-23T04:57:03;96562.28;;;21.42;100.00
27232;BME280;61835;50.196;6.454;2022-07-23T04:59:29;96560.19;;;21.59;100.00
27232;BME280;61835;50.196;6.454;2022-07-23T05:01:58;96567.38;;;21.88;100.00
27232;BME280;61835;50.196;6.454;2022-07-23T05:04:24;96563.19;;;21.85;100.00
27232;BME280;61835;50.196;6.454;2022-07-23T05:06:51;96569.34;;;21.79;100.00
27232;BME280;61835;50.196;6.454;2022-07-23T05:09:16;96572.03;;;21.79;100.00
27232;BME280;61835;50.196;6.454;2022-07-23T05:11:42;96579.78;;;21.82;100.00
27232;BME280;61835;50.196;6.454;2022-07-23T05:14:07;96570.84;;;21.82;100.00
27232;BME280;61835;50.196;6.454;2022-07-23T05:16:33;96570.84;;;21.82;100.00
27232;BME280;61835;50.196;6.454;2022-07-23T05:19:03;96577.44;;;21.79;100.00
27232;BME280;61835;50.196;6.454;2022-07-23T05:21:30;96570.69;;;21.68;100.00
27232;BME280;61835;50.196;6.454;2022-07-23T05:23:55;96579.09;;;21.59;100.00
27232;BME280;61835;50.196;6.454;2022-07-23T05:26:21;96573.13;;;21.63;100.00
27232;BME280;61835;50.196;6.454;2022-07-23T05:28:46;96579.09;;;21.59;100.00
27232;BME280;61835;50.196;6.454;2022-07-23T05:31:12;96578.78;;;21.68;100.00
27232;BME280;61835;50.196;6.454;2022-07-23T05:33:37;96579.13;;;21.80;100.00
27232;BME280;61835;50.196;6.454;2022-07-23T05:36:03;96589.91;;;21.95;100.00
27232;BME280;61835;50.196;6.454;2022-07-23T05:38:31;96588.97;;;22.02;100.00
27232;BME280;61835;50.196;6.454;2022-07-23T05:40:58;96581.19;;;22.14;100.00
27232;BME280;61835;50.196;6.454;2022-07-23T05:43:25;96586.66;;;21.99;100.00
27232;BME280;61835;50.196;6.454;2022-07-23T05:45:51;96593.00;;;21.92;100.00
27232;BME280;61835;50.196;6.454;2022-07-23T05:48:16;96590.00;;;22.01;100.00
27232;BME280;61835;50.196;6.454;2022-07-23T05:51:00;96588.25;;;21.94;100.00
27232;BME280;61835;50.196;6.454;2022-07-23T05:53:34;96597.72;;;22.04;100.00
27232;BME280;61835;50.196;6.454;2022-07-23T05:56:03;96598.59;;;22.11;100.00
27232;BME280;61835;50.196;6.454;2022-07-23T05:58:30;96597.44;;;22.20;100.00
27232;BME280;61835;50.196;6.454;2022-07-23T06:00:55;96608.78;;;22.31;100.00
27232;BME280;61835;50.196;6.454;2022-07-23T06:03:21;96607.44;;;22.20;100.00
27232;BME280;61835;50.196;6.454;2022-07-23T06:05:46;96607.00;;;22.38;100.00
27232;BME280;61835;50.196;6.454;2022-07-23T06:08:12;96600.75;;;22.58;100.00
27232;BME280;61835;50.196;6.454;2022-07-23T06:10:37;96600.59;;;22.88;100.00
27232;BME280;61835;50.196;6.454;2022-07-23T06:13:03;96597.78;;;23.09;100.00
27232;BME280;61835;50.196;6.454;2022-07-23T06:15:29;96605.59;;;23.25;100.00
27232;BME280;61835;50.196;6.454;2022-07-23T06:17:55;96595.56;;;23.19;100.00
27232;BME280;61835;50.196;6.454;2022-07-23T06:20:21;96599.44;;;23.38;100.00
27232;BME280;61835;50.196;6.454;2022-07-23T06:22:47;96608.84;;;23.42;100.00
27232;BME280;61835;50.196;6.454;2022-07-23T06:25:12;96608.84;;;23.82;100.00
27232;BME280;61835;50.196;6.454;2022-07-23T06:27:38;96612.44;;;24.09;100.00
27232;BME280;61835;50.196;6.454;2022-07-23T06:30:04;96612.97;;;24.46;100.00
27232;BME280;61835;50.196;6.454;2022-07-23T06:32:29;96608.59;;;24.58;100.00
27232;BME280;61835;50.196;6.454;2022-07-23T06:34:55;96610.06;;;24.54;100.00
27232;BME280;61835;50.196;6.454;2022-07-23T06:37:20;96609.06;;;24.81;100.00
27232;BME280;61835;50.196;6.454;2022-07-23T06:39:45;96606.53;;;24.79;100.00
27232;BME280;61835;50.196;6.454;2022-07-23T06:42:11;96614.69;;;24.92;100.00
27232;BME280;61835;50.196;6.454;2022-07-23T06:44:42;96615.28;;;25.01;100.00
27232;BME280;61835;50.196;6.454;2022-07-23T06:47:07;96617.16;;;25.14;100.00
27232;BME280;61835;50.196;6.454;2022-07-23T06:49:33;96626.34;;;25.32;100.00
27232;BME280;61835;50.196;6.454;2022-07-23T06:51:58;96621.72;;;25.39;100.00
27232;BME280;61835;50.196;6.454;2022-07-23T06:54:24;96621.28;;;25.62;100.00
27232;BME280;61835;50.196;6.454;2022-07-23T06:56:49;96618.31;;;25.77;100.00
27232;BME280;61835;50.196;6.454;2022-07-23T06:59:15;96618.34;;;26.08;100.00
27232;BME280;61835;50.196;6.454;2022-07-23T07:01:41;96614.09;;;26.25;100.00
27232;BME280;61835;50.196;6.454;2022-07-23T07:04:07;96618.94;;;26.23;100.00
27232;BME280;61835;50.196;6.454;2022-07-23T07:06:32;96612.88;;;26.21;100.00
27232;BME280;61835;50.196;6.454;2022-07-23T07:08:58;96621.91;;;26.15;100.00
27232;BME280;61835;50.196;6.454;2022-07-23T07:11:23;96621.31;;;26.06;100.00
27232;BME280;61835;50.196;6.454;2022-07-23T07:13:50;96624.53;;;25.84;100.00
27232;BME280;61835;50.196;6.454;2022-07-23T07:16:16;96621.47;;;26.12;100.00
27232;BME280;61835;50.196;6.454;2022-07-23T07:18:41;96626.34;;;26.41;100.00
27232;BME280;61835;50.196;6.454;2022-07-23T07:21:06;96629.69;;;26.43;100.00
27232;BME280;61835;50.196;6.454;2022-07-23T07:23:32;96630.88;;;26.53;100.00
27232;BME280;61835;50.196;6.454;2022-07-23T07:25:57;96626.00;;;26.31;100.00
27232;BME280;61835;50.196;6.454;2022-07-23T07:28:23;96628.09;;;26.29;100.00
27232;BME280;61835;50.196;6.454;2022-07-23T07:30:48;96639.28;;;26.45;100.00
27232;BME280;61835;50.196;6.454;2022-07-23T07:33:14;96627.09;;;26.54;100.00
27232;BME280;61835;50.196;6.454;2022-07-23T07:35:39;96634.22;;;26.55;100.00
27232;BME280;61835;50.196;6.454;2022-07-23T07:38:04;96633.34;;;26.61;100.00
27232;BME280;61835;50.196;6.454;2022-07-23T07:40:30;96629.81;;;26.54;100.00
27232;BME280;61835;50.196;6.454;2022-07-23T07:42:55;96632.22;;;26.69;100.00
27232;BME280;61835;50.196;6.454;2022-07-23T07:45:24;96630.16;;;26.96;100.00
27232;BME280;61835;50.196;6.454;2022-07-23T07:47:51;96647.50;;;26.70;100.00
27232;BME280;61835;50.196;6.454;2022-07-23T07:50:18;96640.97;;;26.46;100.00
27232;BME280;61835;50.196;6.454;2022-07-23T07:52:43;96650.06;;;26.65;100.00
27232;BME280;61835;50.196;6.454;2022-07-23T07:55:09;96653.28;;;26.87;100.00
27232;BME280;61835;50.196;6.454;2022-07-23T07:57:35;96656.91;;;26.74;100.00
27232;BME280;61835;50.196;6.454;2022-07-23T08:00:02;96657.72;;;27.06;100.00
27232;BME280;61835;50.196;6.454;2022-07-23T08:02:44;96660.22;;;26.00;100.00
27232;BME280;61835;50.196;6.454;2022-07-23T08:05:10;96655.38;;;26.53;98.49
27232;BME280;61835;50.196;6.454;2022-07-23T08:07:36;96641.50;;;26.93;100.00
27232;BME280;61835;50.196;6.454;2022-07-23T08:10:04;96647.28;;;27.28;99.13
27232;BME280;61835;50.196;6.454;2022-07-23T08:12:47;96641.59;;;27.29;95.49
27232;BME280;61835;50.196;6.454;2022-07-23T08:15:15;96647.38;;;27.39;100.00
27232;BME280;61835;50.196;6.454;2022-07-23T08:17:42;96645.31;;;27.59;98.36
27232;BME280;61835;50.196;6.454;2022-07-23T08:20:09;96647.72;;;27.67;89.84
27232;BME280;61835;50.196;6.454;2022-07-23T08:22:48;96645.91;;;27.61;89.33
27232;BME280;61835;50.196;6.454;2022-07-23T08:25:15;96650.63;;;27.54;92.72
27232;BME280;61835;50.196;6.454;2022-07-23T08:27:41;96651.06;;;27.69;91.05
27232;BME280;61835;50.196;6.454;2022-07-23T08:30:06;96651.81;;;27.77;95.51
27232;BME280;61835;50.196;6.454;2022-07-23T08:32:33;96660.00;;;27.77;95.03
27232;BME280;61835;50.196;6.454;2022-07-23T08:34:58;96660.75;;;28.20;92.34
27232;BME280;61835;50.196;6.454;2022-07-23T08:37:23;96657.16;;;28.38;93.83
27232;BME280;61835;50.196;6.454;2022-07-23T08:39:49;96663.53;;;28.61;85.58
27232;BME280;61835;50.196;6.454;2022-07-23T08:42:14;96658.41;;;28.71;91.33
27232;BME280;61835;50.196;6.454;2022-07-23T08:44:45;96663.94;;;29.18;86.04
27232;BME280;61835;50.196;6.454;2022-07-23T08:47:12;96662.25;;;28.94;89.49
27232;BME280;61835;50.196;6.454;2022-07-23T08:49:38;96676.28;;;29.09;92.55
27232;BME280;61835;50.196;6.454;2022-07-23T08:52:04;96665.88;;;28.76;88.66
27232;BME280;61835;50.196;6.454;2022-07-23T08:54:31;96672.66;;;28.85;82.36
27232;BME280;61835;50.196;6.454;2022-07-23T08:56:57;96668.81;;;29.16;83.26
27232;BME280;61835;50.196;6.454;2022-07-23T08:59:22;96668.50;;;29.47;81.24
27232;BME280;61835;50.196;6.454;2022-07-23T09:01:47;96670.66;;;29.68;80.18
27232;BME280;61835;50.196;6.454;2022-07-23T09:04:13;96661.13;;;29.59;75.66
27232;BME280;61835;50.196;6.454;2022-07-23T09:06:39;96664.28;;;29.10;82.03
27232;BME280;61835;50.196;6.454;2022-07-23T09:09:20;96667.69;;;28.94;88.70
27232;BME280;61835;50.196;6.454;2022-07-23T09:11:47;96671.31;;;28.46;87.40
27232;BME280;61835;50.196;6.454;2022-07-23T09:14:13;96668.28;;;28.54;93.27
27232;BME280;61835;50.196;6.454;2022-07-23T09:16:39;96673.41;;;28.62;88.14
27232;BME280;61835;50.196;6.454;2022-07-23T09:19:06;96672.69;;;28.97;83.25
27232;BME280;61835;50.196;6.454;2022-07-23T09:21:36;96666.59;;;29.71;80.73
27232;BME280;61835;50.196;6.454;2022-07-23T09:24:07;96664.94;;;30.05;75.09
27232;BME280;61835;50.196;6.454;2022-07-23T09:26:41;96669.78;;;30.03;82.17
27232;BME280;61835;50.196;6.454;2022-07-23T09:29:20;96673.75;;;29.83;83.43
27232;BME280;61835;50.196;6.454;2022-07-23T09:34:38;96667.91;;;29.80;78.26
27232;BME280;61835;50.196;6.454;2022-07-23T09:37:17;96678.28;;;29.66;72.66
27232;BME280;61835;50.196;6.454;2022-07-23T09:39:44;96672.03;;;30.06;69.72
27232;BME280;61835;50.196;6.454;2022-07-23T09:42:15;96671.28;;;30.62;74.17
27232;BME280;61835;50.196;6.454;2022-07-23T09:44:42;96668.69;;;31.12;68.80
27232;BME280;61835;50.196;6.454;2022-07-23T09:47:07;96676.06;;;31.44;68.29
27232;BME280;61835;50.196;6.454;2022-07-23T09:49:33;96663.44;;;31.43;67.26
27232;BME280;61835;50.196;6.454;2022-07-23T09:51:59;96664.53;;;30.81;67.32
27232;BME280;61835;50.196;6.454;2022-07-23T09:54:34;96663.84;;;30.74;64.26
27232;BME280;61835;50.196;6.454;2022-07-23T09:57:09;96677.28;;;30.59;77.93
27232;BME280;61835;50.196;6.454;2022-07-23T09:59:39;96673.91;;;30.97;63.49
27232;BME280;61835;50.196;6.454;2022-07-23T10:02:06;96678.66;;;31.34;63.66
27232;BME280;61835;50.196;6.454;2022-07-23T10:04:42;96674.34;;;32.10;60.31
27232;BME280;61835;50.196;6.454;2022-07-23T10:07:17;96675.75;;;32.13;60.64
27232;BME280;61835;50.196;6.454;2022-07-23T10:10:07;96681.00;;;32.36;50.51
27232;BME280;61835;50.196;6.454;2022-07-23T10:13:05;96681.63;;;32.21;53.72
27232;BME280;61835;50.196;6.454;2022-07-23T10:15:44;96667.19;;;32.31;57.59
27232;BME280;61835;50.196;6.454;2022-07-23T10:18:11;96666.00;;;32.65;52.31
27232;BME280;61835;50.196;6.454;2022-07-23T10:20:38;96678.69;;;32.06;54.75
27232;BME280;61835;50.196;6.454;2022-07-23T10:23:17;96679.53;;;31.90;54.78
27232;BME280;61835;50.196;6.454;2022-07-23T10:26:06;96676.81;;;31.73;65.04
27232;BME280;61835;50.196;6.454;2022-07-23T10:29:07;96678.56;;;32.01;61.57
27232;BME280;61835;50.196;6.454;2022-07-23T10:31:46;96669.31;;;31.85;56.74
27232;BME280;61835;50.196;6.454;2022-07-23T10:34:25;96666.88;;;32.06;55.01
27232;BME280;61835;50.196;6.454;2022-07-23T10:36:58;96664.56;;;31.97;54.36
27232;BME280;61835;50.196;6.454;2022-07-23T10:39:28;96667.84;;;31.28;54.87
27232;BME280;61835;50.196;6.454;2022-07-23T10:42:13;96668.81;;;31.88;54.87
27232;BME280;61835;50.196;6.454;2022-07-23T10:44:47;96659.28;;;32.56;53.70
27232;BME280;61835;50.196;6.454;2022-07-23T10:47:13;96677.72;;;33.09;48.35
27232;BME280;61835;50.196;6.454;2022-07-23T10:57:56;96655.34;;;36.24;38.37
27232;BME280;61835;50.196;6.454;2022-07-23T11:00:26;96650.41;;;36.11;38.23
27232;BME280;61835;50.196;6.454;2022-07-23T11:02:56;96648.28;;;36.62;38.24
27232;BME280;61835;50.196;6.454;2022-07-23T11:05:42;96648.84;;;35.29;38.26
27232;BME280;61835;50.196;6.454;2022-07-23T11:24:06;96649.25;;;37.30;37.01
27232;BME280;61835;50.196;6.454;2022-07-23T11:31:57;96654.47;;;33.95;43.86
27232;BME280;61835;50.196;6.454;2022-07-23T11:34:39;96661.63;;;33.23;47.76
27232;BME280;61835;50.196;6.454;2022-07-23T11:37:07;96666.28;;;33.54;48.70
27232;BME280;61835;50.196;6.454;2022-07-23T11:39:33;96657.94;;;33.81;42.74
27232;BME280;61835;50.196;6.454;2022-07-23T11:42:00;96657.44;;;34.41;42.66
27232;BME280;61835;50.196;6.454;2022-07-23T11:49:27;96651.59;;;35.35;37.56
27232;BME280;61835;50.196;6.454;2022-07-23T11:52:06;96654.09;;;35.56;40.03
27232;BME280;61835;50.196;6.454;2022-07-23T11:54:32;96648.53;;;36.71;37.97
27232;BME280;61835;50.196;6.454;2022-07-23T11:56:59;96650.94;;;36.28;37.03
27232;BME280;61835;50.196;6.454;2022-07-23T11:59:26;96657.41;;;37.51;35.93
27232;BME280;61835;50.196;6.454;2022-07-23T12:02:01;96649.47;;;36.41;37.01
27232;BME280;61835;50.196;6.454;2022-07-23T12:07:21;96655.34;;;34.63;41.71
27232;BME280;61835;50.196;6.454;2022-07-23T12:09:47;96657.00;;;34.64;41.30
27232;BME280;61835;50.196;6.454;2022-07-23T12:12:13;96657.97;;;34.28;43.41
27232;BME280;61835;50.196;6.454;2022-07-23T12:14:54;96666.91;;;33.66;42.71
27232;BME280;61835;50.196;6.454;2022-07-23T12:17:21;96659.56;;;33.40;49.95
27232;BME280;61835;50.196;6.454;2022-07-23T12:19:47;96666.00;;;33.92;46.21
27232;BME280;61835;50.196;6.454;2022-07-23T12:22:12;96658.75;;;33.81;43.60
27232;BME280;61835;50.196;6.454;2022-07-23T12:24:59;96657.94;;;33.44;46.65
27232;BME280;61835;50.196;6.454;2022-07-23T12:27:26;96670.31;;;33.09;48.48
27232;BME280;61835;50.196;6.454;2022-07-23T12:29:52;96658.50;;;32.87;46.21
27232;BME280;61835;50.196;6.454;2022-07-23T12:32:26;96661.63;;;33.23;43.81
27232;BME280;61835;50.196;6.454;2022-07-23T12:35:10;96643.88;;;35.42;39.42
27232;BME280;61835;50.196;6.454;2022-07-23T12:37:40;96634.00;;;36.94;36.75
27232;BME280;61835;50.196;6.454;2022-07-23T12:42:56;96642.31;;;37.95;33.24
27232;BME280;61835;50.196;6.454;2022-07-23T12:45:22;96648.47;;;37.59;33.11
27232;BME280;61835;50.196;6.454;2022-07-23T12:48:05;96651.88;;;35.53;35.21
27232;BME280;61835;50.196;6.454;2022-07-23T12:50:40;96657.91;;;34.95;38.39
27232;BME280;61835;50.196;6.454;2022-07-23T12:53:14;96652.63;;;34.11;39.80
27232;BME280;61835;50.196;6.454;2022-07-23T12:55:41;96664.91;;;33.25;46.34
27232;BME280;61835;50.196;6.454;2022-07-23T12:58:09;96663.00;;;32.98;46.03
27232;BME280;61835;50.196;6.454;2022-07-23T13:03:36;96658.09;;;33.00;43.66
27232;BME280;61835;50.196;6.454;2022-07-23T13:06:03;96660.22;;;33.20;44.50
27232;BME280;61835;50.196;6.454;2022-07-23T13:08:31;96660.41;;;33.08;47.99
27232;BME280;61835;50.196;6.454;2022-07-23T13:10:57;96662.75;;;33.27;42.75
27232;BME280;61835;50.196;6.454;2022-07-23T13:13:29;96666.72;;;33.41;44.96
27232;BME280;61835;50.196;6.454;2022-07-23T13:15:54;96666.34;;;32.74;50.54
27232;BME280;61835;50.196;6.454;2022-07-23T13:18:20;96674.13;;;32.82;51.46
27232;BME280;61835;50.196;6.454;2022-07-23T13:20:47;96668.88;;;31.93;48.09
27232;BME280;61835;50.196;6.454;2022-07-23T13:23:14;96661.69;;;32.74;43.34
27232;BME280;61835;50.196;6.454;2022-07-23T13:25:39;96666.16;;;33.39;42.91
27232;BME280;61835;50.196;6.454;2022-07-23T13:28:05;96664.38;;;33.23;41.22
27232;BME280;61835;50.196;6.454;2022-07-23T13:30:30;96676.19;;;32.48;52.94
27232;BME280;61835;50.196;6.454;2022-07-23T13:32:56;96674.28;;;33.24;48.80
27232;BME280;61835;50.196;6.454;2022-07-23T13:35:21;96658.81;;;34.43;42.99
27232;BME280;61835;50.196;6.454;2022-07-23T13:37:47;96660.66;;;35.00;42.38
27232;BME280;61835;50.196;6.454;2022-07-23T13:40:13;96658.22;;;35.64;38.49
27232;BME280;61835;50.196;6.454;2022-07-23T13:42:38;96651.81;;;35.94;35.59